createdAt,value
2022-11-08T00:00:45.488Z,21.37
2022-11-08T00:03:13.023Z,19.97
2022-11-08T00:05:59.409Z,24.87
2022-11-08T00:08:45.737Z,21.43
2022-11-08T00:11:31.874Z,20.40
2022-11-08T00:14:00.067Z,20.90
2022-11-08T00:16:28.752Z,21.70
2022-11-08T00:18:56.108Z,22.90
2022-11-08T00:21:23.431Z,21.53
2022-11-08T00:23:50.692Z,24.37
2022-11-08T00:26:18.573Z,24.43
2022-11-08T00:28:45.910Z,23.80
2022-11-08T00:31:13.251Z,23.53
2022-11-08T00:33:40.610Z,22.97
2022-11-08T00:36:08.053Z,22.20
2022-11-08T00:38:35.316Z,22.00
2022-11-08T00:41:02.627Z,20.13
2022-11-08T00:43:29.891Z,25.23
2022-11-08T00:45:57.311Z,25.90
2022-11-08T00:48:24.606Z,27.53
2022-11-08T00:50:52.146Z,25.40
2022-11-08T00:53:19.400Z,25.73
2022-11-08T00:55:46.943Z,24.33
2022-11-08T00:58:14.323Z,21.97
2022-11-08T01:00:41.751Z,24.67
2022-11-08T01:03:21.282Z,22.13
2022-11-08T01:05:50.644Z,21.17
2022-11-08T01:08:18.946Z,23.60
2022-11-08T01:10:52.499Z,24.13
2022-11-08T01:13:20.038Z,27.03
2022-11-08T01:15:47.786Z,30.50
2022-11-08T01:18:17.381Z,22.67
2022-11-08T01:20:46.707Z,22.10
2022-11-08T01:23:14.730Z,20.77
2022-11-08T01:25:45.531Z,20.13
2022-11-08T01:28:13.647Z,20.73
2022-11-08T01:30:43.317Z,22.43
2022-11-08T01:33:11.287Z,29.73
2022-11-08T01:35:39.076Z,24.03
2022-11-08T01:38:07.018Z,21.80
2022-11-08T01:40:34.389Z,21.67
2022-11-08T01:43:27.016Z,19.57
2022-11-08T01:46:18.465Z,21.50
2022-11-08T01:49:16.605Z,24.13
2022-11-08T01:51:54.104Z,18.87
2022-11-08T01:54:46.538Z,17.20
2022-11-08T01:57:18.225Z,16.83
2022-11-08T01:59:47.718Z,16.43
2022-11-08T02:02:16.034Z,18.03
2022-11-08T02:04:44.130Z,18.77
2022-11-08T02:07:13.696Z,19.17
2022-11-08T02:09:43.728Z,17.80
2022-11-08T02:12:12.606Z,20.03
2022-11-08T02:14:40.216Z,17.20
2022-11-08T02:17:08.308Z,18.00
2022-11-08T02:19:53.912Z,16.67
2022-11-08T02:22:33.682Z,15.83
2022-11-08T02:25:01.365Z,15.63
2022-11-08T02:27:28.721Z,16.47
2022-11-08T02:29:56.635Z,15.87
2022-11-08T02:32:25.085Z,14.83
2022-11-08T02:34:59.010Z,15.87
2022-11-08T02:37:27.039Z,15.97
2022-11-08T02:39:54.618Z,15.80
2022-11-08T02:42:22.052Z,15.50
2022-11-08T02:44:49.937Z,15.90
2022-11-08T02:47:17.643Z,16.70
2022-11-08T02:49:45.023Z,18.23
2022-11-08T02:52:12.556Z,14.83
2022-11-08T02:54:40.041Z,15.73
2022-11-08T02:57:07.398Z,16.60
2022-11-08T02:59:34.755Z,16.73
2022-11-08T03:02:02.403Z,17.20
2022-11-08T03:04:29.738Z,20.80
2022-11-08T03:06:56.991Z,18.07
2022-11-08T03:09:24.398Z,18.17
2022-11-08T03:11:51.639Z,20.73
2022-11-08T03:14:19.011Z,20.33
2022-11-08T03:16:46.287Z,19.50
2022-11-08T03:19:14.047Z,20.13
2022-11-08T03:21:41.330Z,18.37
2022-11-08T03:24:09.151Z,15.77
2022-11-08T03:26:36.429Z,15.60
2022-11-08T03:29:03.769Z,15.57
2022-11-08T03:31:31.025Z,16.23
2022-11-08T03:33:58.289Z,14.93
2022-11-08T03:36:25.943Z,16.13
2022-11-08T03:38:53.414Z,14.60
2022-11-08T03:41:20.652Z,14.97
2022-11-08T03:43:50.555Z,15.13
2022-11-08T03:46:18.448Z,15.43
2022-11-08T03:48:45.782Z,16.03
2022-11-08T03:51:13.366Z,17.17
2022-11-08T03:53:40.629Z,16.10
2022-11-08T03:56:08.376Z,18.40
2022-11-08T03:58:36.336Z,18.97
2022-11-08T04:01:06.064Z,19.80
2022-11-08T04:03:33.615Z,19.67
2022-11-08T04:06:04.149Z,19.63
2022-11-08T04:08:31.602Z,17.03
2022-11-08T04:11:19.854Z,18.50
2022-11-08T04:14:05.531Z,19.07
2022-11-08T04:16:33.742Z,16.30
2022-11-08T04:19:19.809Z,16.90
2022-11-08T04:21:52.991Z,20.00
2022-11-08T04:24:21.580Z,17.13
2022-11-08T04:26:49.095Z,17.00
2022-11-08T04:29:17.185Z,17.70
2022-11-08T04:31:45.852Z,20.33
2022-11-08T04:34:14.737Z,18.77
2022-11-08T04:36:42.314Z,21.37
2022-11-08T04:39:09.657Z,23.63
2022-11-08T04:41:36.947Z,21.20
2022-11-08T04:44:04.316Z,19.60
2022-11-08T04:46:31.643Z,19.23
2022-11-08T04:49:00.912Z,19.60
2022-11-08T04:51:32.311Z,19.70
2022-11-08T04:54:02.446Z,20.67
2022-11-08T04:56:31.131Z,22.00
2022-11-08T04:59:00.277Z,24.57
2022-11-08T05:01:30.356Z,26.50
2022-11-08T05:03:58.772Z,27.83
2022-11-08T05:06:31.580Z,29.07
2022-11-08T05:09:00.373Z,26.43
2022-11-08T05:11:29.646Z,26.37
2022-11-08T05:13:58.348Z,26.47
2022-11-08T05:16:31.124Z,27.33
2022-11-08T05:18:58.465Z,27.13
2022-11-08T05:21:44.882Z,30.23
2022-11-08T05:24:16.228Z,28.23
2022-11-08T05:26:46.233Z,27.67
2022-11-08T05:29:15.136Z,35.23
2022-11-08T05:31:43.097Z,34.10
2022-11-08T05:34:10.579Z,30.60
2022-11-08T05:36:38.145Z,27.30
2022-11-08T05:39:05.672Z,27.90
2022-11-08T05:41:33.126Z,33.97
2022-11-08T05:44:00.485Z,41.03
2022-11-08T05:46:27.869Z,41.63
2022-11-08T05:48:55.557Z,34.90
2022-11-08T05:51:22.893Z,35.67
2022-11-08T05:53:50.218Z,33.67
2022-11-08T05:56:18.406Z,34.27
2022-11-08T05:58:46.371Z,34.37
2022-11-08T06:01:16.872Z,32.90
2022-11-08T06:03:44.453Z,33.90
2022-11-08T06:06:14.256Z,35.93
2022-11-08T06:08:49.882Z,34.27
2022-11-08T06:11:23.577Z,33.03
2022-11-08T06:13:51.576Z,32.93
2022-11-08T06:16:20.563Z,34.53
2022-11-08T06:18:49.374Z,37.07
2022-11-08T06:21:19.756Z,37.37
2022-11-08T06:23:47.752Z,40.40
2022-11-08T06:26:16.454Z,38.37
2022-11-08T06:28:43.707Z,34.80
2022-11-08T06:31:11.345Z,33.57
2022-11-08T06:33:38.658Z,33.50
2022-11-08T06:36:07.543Z,36.80
2022-11-08T06:38:34.907Z,36.73
2022-11-08T06:41:03.106Z,40.13
2022-11-08T06:43:30.805Z,41.07
2022-11-08T06:46:04.418Z,36.20
2022-11-08T06:48:35.779Z,33.83
2022-11-08T06:51:04.209Z,28.90
2022-11-08T06:53:31.981Z,32.23
2022-11-08T06:56:03.130Z,33.83
2022-11-08T06:58:31.208Z,29.87
2022-11-08T07:00:58.760Z,31.60
2022-11-08T07:03:26.111Z,32.50
2022-11-08T07:05:53.330Z,29.80
2022-11-08T07:08:23.565Z,30.30
2022-11-08T07:10:51.812Z,26.73
2022-11-08T07:13:19.459Z,26.90
2022-11-08T07:15:48.895Z,27.53
2022-11-08T07:18:18.722Z,25.40
2022-11-08T07:20:46.959Z,25.57
2022-11-08T07:23:14.727Z,23.87
2022-11-08T07:25:42.209Z,25.27
2022-11-08T07:28:21.899Z,24.70
2022-11-08T07:30:50.137Z,24.13
2022-11-08T07:33:18.355Z,27.63
2022-11-08T07:35:47.621Z,28.30
2022-11-08T07:38:15.096Z,25.73
2022-11-08T07:40:42.959Z,26.23
2022-11-08T07:43:12.120Z,28.10
2022-11-08T07:45:40.655Z,26.07
2022-11-08T07:48:12.615Z,21.37
2022-11-08T07:50:43.225Z,20.70
2022-11-08T07:53:11.283Z,21.17
2022-11-08T07:55:39.763Z,21.50
2022-11-08T07:58:08.932Z,20.47
2022-11-08T08:00:38.080Z,20.57
2022-11-08T08:03:07.585Z,26.27
2022-11-08T08:05:40.574Z,18.03
2022-11-08T08:08:08.228Z,16.90
2022-11-08T08:10:36.558Z,17.60
2022-11-08T08:13:05.263Z,25.47
2022-11-08T08:15:33.209Z,16.87
2022-11-08T08:18:02.256Z,18.07
2022-11-08T08:20:31.154Z,15.07
2022-11-08T08:22:59.062Z,14.57
2022-11-08T08:25:28.317Z,14.37
2022-11-08T08:27:57.734Z,13.13
2022-11-08T08:30:26.100Z,14.23
2022-11-08T08:33:26.740Z,15.47
2022-11-08T08:35:49.947Z,29.47
2022-11-08T08:38:17.493Z,18.37
2022-11-08T08:40:44.983Z,19.53
2022-11-08T08:43:12.275Z,14.50
2022-11-08T08:45:40.862Z,29.70
2022-11-08T08:48:08.168Z,21.33
2022-11-08T08:50:35.599Z,24.13
2022-11-08T08:53:05.508Z,20.20
2022-11-08T08:55:35.924Z,11.73
2022-11-08T08:58:03.947Z,12.57
2022-11-08T09:03:19.684Z,15.10
2022-11-08T09:05:47.472Z,22.20
2022-11-08T09:08:15.411Z,14.43
2022-11-08T09:10:43.088Z,25.27
2022-11-08T09:13:10.742Z,22.63
2022-11-08T09:15:40.302Z,17.50
2022-11-08T09:18:07.809Z,14.83
2022-11-08T09:20:35.131Z,16.03
2022-11-08T09:23:03.496Z,11.43
2022-11-08T09:25:31.453Z,14.83
2022-11-08T09:27:58.726Z,12.70
2022-11-08T09:30:26.990Z,14.57
2022-11-08T09:33:02.589Z,10.10
2022-11-08T09:35:30.873Z,12.93
2022-11-08T09:37:59.074Z,6.47
2022-11-08T09:40:43.324Z,6.00
2022-11-08T09:43:57.670Z,5.77
2022-11-08T09:46:45.204Z,7.00
2022-11-08T09:49:25.703Z,10.03
2022-11-08T09:51:53.738Z,5.88
2022-11-08T09:54:26.585Z,6.20
2022-11-08T09:56:55.958Z,8.05
2022-11-08T09:59:44.008Z,5.22
2022-11-08T10:02:24.180Z,5.07
2022-11-08T10:05:02.079Z,7.80
2022-11-08T10:07:36.596Z,9.73
2022-11-08T10:10:30.569Z,8.68
2022-11-08T10:13:18.275Z,15.52
2022-11-08T10:16:27.723Z,6.80
2022-11-08T10:19:07.287Z,15.05
2022-11-08T10:21:58.749Z,11.27
2022-11-08T10:24:54.094Z,9.17
2022-11-08T10:27:38.136Z,6.37
2022-11-08T10:30:18.439Z,4.67
2022-11-08T10:32:53.858Z,4.40
2022-11-08T10:35:21.568Z,5.07
2022-11-08T10:37:52.359Z,3.53
2022-11-08T10:40:33.316Z,5.63
2022-11-08T10:43:09.611Z,4.37
2022-11-08T10:45:37.533Z,4.17
2022-11-08T10:48:05.876Z,5.20
2022-11-08T10:50:43.874Z,3.13
2022-11-08T10:53:24.086Z,3.20
2022-11-08T10:56:01.231Z,3.10
2022-11-08T10:58:36.383Z,3.13
2022-11-08T11:01:06.464Z,3.30
2022-11-08T11:03:34.214Z,3.53
2022-11-08T11:06:06.599Z,3.97
2022-11-08T11:08:34.417Z,4.13
2022-11-08T11:11:36.054Z,4.30
2022-11-08T11:14:22.613Z,4.07
2022-11-08T11:17:00.952Z,3.70
2022-11-08T11:19:30.126Z,3.60
2022-11-08T11:22:03.911Z,2.90
2022-11-08T11:24:32.263Z,3.40
2022-11-08T11:27:07.816Z,4.00
2022-11-08T11:29:37.096Z,3.97
2022-11-08T11:32:34.865Z,3.83
2022-11-08T11:35:04.601Z,4.40
2022-11-08T11:37:45.474Z,6.37
2022-11-08T11:40:22.004Z,14.33
2022-11-08T11:43:11.431Z,5.33
2022-11-08T11:45:48.406Z,4.07
2022-11-08T11:48:19.214Z,9.23
2022-11-08T11:50:49.741Z,4.70
2022-11-08T11:53:23.064Z,4.97
2022-11-08T11:56:21.792Z,6.27
2022-11-08T11:59:04.928Z,3.23
2022-11-08T12:02:00.939Z,4.90
2022-11-08T12:05:05.393Z,4.37
2022-11-08T12:07:34.376Z,3.73
2022-11-08T12:10:35.900Z,3.50
2022-11-08T12:13:21.582Z,5.20
2022-11-08T12:16:15.673Z,4.60
2022-11-08T12:19:13.924Z,3.40
2022-11-08T12:22:06.036Z,5.77
2022-11-08T12:24:50.595Z,3.00
2022-11-08T12:27:29.757Z,19.38
2022-11-08T12:30:18.242Z,17.30
2022-11-08T12:33:16.451Z,4.28
2022-11-08T12:36:13.560Z,8.07
2022-11-08T12:38:56.126Z,3.45
2022-11-08T12:41:58.547Z,4.88
2022-11-08T12:44:28.906Z,9.52
2022-11-08T12:47:08.633Z,7.68
2022-11-08T12:49:50.702Z,7.70
2022-11-08T12:52:27.174Z,2.70
2022-11-08T12:55:04.247Z,9.85
2022-11-08T12:57:32.578Z,4.05
2022-11-08T12:59:59.909Z,2.08
2022-11-08T13:02:32.452Z,2.60
2022-11-08T13:05:28.116Z,3.75
2022-11-08T13:08:17.464Z,2.72
2022-11-08T13:11:01.815Z,8.02
2022-11-08T13:13:39.032Z,3.58
2022-11-08T13:16:22.460Z,6.35
2022-11-08T13:18:58.591Z,9.20
2022-11-08T13:21:28.790Z,7.00
2022-11-08T13:24:45.846Z,5.68
2022-11-08T13:27:31.944Z,7.55
2022-11-08T13:30:04.933Z,6.90
2022-11-08T13:32:44.294Z,5.75
2022-11-08T13:35:31.074Z,5.45
2022-11-08T13:38:04.292Z,3.83
2022-11-08T13:40:46.493Z,4.05
2022-11-08T13:43:31.785Z,5.28
2022-11-08T13:46:21.059Z,3.53
2022-11-08T13:49:05.637Z,6.65
2022-11-08T13:51:40.145Z,11.05
2022-11-08T13:54:22.823Z,7.80
2022-11-08T13:56:53.018Z,5.00
2022-11-08T13:59:32.636Z,5.40
2022-11-08T14:02:00.189Z,8.25
2022-11-08T14:04:38.881Z,6.80
2022-11-08T14:07:25.380Z,23.20
2022-11-08T14:10:20.531Z,7.17
2022-11-08T14:13:15.069Z,10.23
2022-11-08T14:16:15.254Z,9.53
2022-11-08T14:18:43.003Z,9.23
2022-11-08T14:21:18.867Z,14.53
2022-11-08T14:23:50.390Z,11.20
2022-11-08T14:26:24.955Z,7.57
2022-11-08T14:28:54.195Z,5.73
2022-11-08T14:31:28.652Z,5.77
2022-11-08T14:33:56.887Z,7.43
2022-11-08T14:36:25.808Z,7.33
2022-11-08T14:39:17.580Z,7.63
2022-11-08T14:41:53.107Z,7.07
2022-11-08T14:44:21.095Z,14.23
2022-11-08T14:46:57.122Z,17.63
2022-11-08T14:49:33.342Z,21.70
2022-11-08T14:52:09.977Z,17.93
2022-11-08T14:54:49.310Z,23.43
2022-11-08T14:57:39.415Z,25.27
2022-11-08T15:00:25.080Z,26.97
2022-11-08T15:03:03.482Z,22.20
2022-11-08T15:05:42.665Z,20.10
2022-11-08T15:08:37.416Z,20.73
2022-11-08T15:11:13.194Z,19.50
2022-11-08T15:13:45.229Z,18.37
2022-11-08T15:16:14.561Z,17.17
2022-11-08T15:18:44.556Z,17.87
2022-11-08T15:21:30.156Z,15.50
2022-11-08T15:24:19.072Z,16.33
2022-11-08T15:27:05.465Z,14.50
2022-11-08T15:30:01.368Z,11.33
2022-11-08T15:32:36.379Z,9.00
2022-11-08T15:35:20.676Z,9.23
2022-11-08T15:37:51.078Z,11.43
2022-11-08T15:40:28.789Z,11.00
2022-11-08T15:43:00.550Z,11.60
2022-11-08T15:45:38.956Z,13.17
2022-11-08T15:48:09.593Z,9.53
2022-11-08T15:50:36.803Z,8.60
2022-11-08T15:53:12.019Z,15.90
2022-11-08T15:55:44.579Z,11.80
2022-11-08T15:58:25.961Z,17.60
2022-11-08T16:00:53.465Z,15.70
2022-11-08T16:03:20.752Z,37.73
2022-11-08T16:05:48.107Z,22.67
2022-11-08T16:08:20.070Z,17.10
2022-11-08T16:10:59.075Z,13.00
2022-11-08T16:13:33.396Z,14.83
2022-11-08T16:16:02.432Z,17.77
2022-11-08T16:18:34.522Z,34.57
2022-11-08T16:21:03.258Z,34.63
2022-11-08T16:23:30.709Z,22.37
2022-11-08T16:26:00.961Z,35.50
2022-11-08T16:28:38.321Z,44.80
2022-11-08T16:31:08.660Z,54.00
2022-11-08T16:33:36.482Z,39.90
2022-11-08T16:36:19.728Z,50.43
2022-11-08T16:38:58.263Z,38.37
2022-11-08T16:41:26.659Z,38.30
2022-11-08T16:43:55.252Z,40.63
2022-11-08T16:46:24.023Z,38.13
2022-11-08T16:48:59.174Z,48.27
2022-11-08T16:51:27.030Z,25.80
2022-11-08T16:53:54.905Z,30.33
2022-11-08T16:56:22.602Z,46.93
2022-11-08T16:58:50.152Z,34.87
2022-11-08T17:01:27.255Z,51.30
2022-11-08T17:03:54.776Z,45.90
2022-11-08T17:06:22.149Z,36.80
2022-11-08T17:08:49.686Z,60.97
2022-11-08T17:11:22.251Z,32.53
2022-11-08T17:13:50.625Z,34.43
2022-11-08T17:16:18.963Z,36.57
2022-11-08T17:18:52.224Z,32.97
2022-11-08T17:21:43.760Z,64.63
2022-11-08T17:24:08.302Z,55.83
2022-11-08T17:26:35.674Z,59.40
2022-11-08T17:29:02.929Z,66.23
2022-11-08T17:31:30.423Z,59.33
2022-11-08T17:33:57.653Z,55.33
2022-11-08T17:36:25.146Z,55.60
2022-11-08T17:38:52.611Z,62.63
2022-11-08T17:41:19.999Z,59.47
2022-11-08T17:43:47.546Z,50.33
2022-11-08T17:46:15.351Z,57.70
2022-11-08T17:48:42.936Z,60.40
2022-11-08T17:51:12.295Z,112.13
2022-11-08T17:53:40.184Z,147.70
2022-11-08T17:56:08.739Z,94.97
2022-11-08T17:58:38.199Z,103.20
2022-11-08T18:01:07.665Z,91.37
2022-11-08T18:03:35.895Z,103.70
2022-11-08T18:06:06.070Z,105.17
2022-11-08T18:08:34.733Z,89.43
2022-11-08T18:11:02.823Z,82.07
2022-11-08T18:13:30.542Z,67.07
2022-11-08T18:16:16.024Z,71.77
2022-11-08T18:18:44.844Z,40.40
2022-11-08T18:21:12.794Z,64.50
2022-11-08T18:23:42.182Z,49.30
2022-11-08T18:26:10.659Z,52.90
2022-11-08T18:28:39.214Z,47.67
2022-11-08T18:31:10.391Z,53.33
2022-11-08T18:33:38.776Z,54.07
2022-11-08T18:36:12.283Z,55.23
2022-11-08T18:38:41.196Z,55.17
2022-11-08T18:41:09.344Z,67.53
2022-11-08T18:43:36.752Z,59.57
2022-11-08T18:46:11.136Z,48.93
2022-11-08T18:48:38.883Z,51.47
2022-11-08T18:51:08.384Z,36.53
2022-11-08T18:53:35.647Z,32.20
2022-11-08T18:56:03.392Z,30.80
2022-11-08T18:58:31.311Z,25.57
2022-11-08T19:00:58.995Z,54.07
2022-11-08T19:03:27.631Z,29.00
2022-11-08T19:05:55.765Z,25.37
2022-11-08T19:08:26.045Z,24.73
2022-11-08T19:11:11.190Z,16.30
2022-11-08T19:13:40.199Z,15.87
2022-11-08T19:16:14.111Z,19.87
2022-11-08T19:18:42.768Z,35.10
2022-11-08T19:21:18.724Z,45.83
2022-11-08T19:23:46.735Z,62.93
2022-11-08T19:26:17.685Z,86.33
2022-11-08T19:28:46.520Z,49.60
2022-11-08T19:31:22.129Z,38.13
2022-11-08T19:33:53.087Z,35.77
2022-11-08T19:36:25.954Z,36.50
2022-11-08T19:38:55.160Z,88.97
2022-11-08T19:41:24.780Z,82.83
2022-11-08T19:43:52.403Z,59.50
2022-11-08T19:46:24.193Z,36.57
2022-11-08T19:48:52.988Z,30.60
2022-11-08T19:51:23.196Z,27.80
2022-11-08T19:53:54.228Z,28.53
2022-11-08T19:56:32.879Z,49.23
2022-11-08T19:59:10.046Z,70.20
2022-11-08T20:01:40.127Z,45.47
2022-11-08T20:04:09.997Z,55.63
2022-11-08T20:06:38.764Z,38.13
2022-11-08T20:09:06.768Z,32.13
2022-11-08T20:11:36.950Z,35.50
2022-11-08T20:14:05.661Z,61.77
2022-11-08T20:16:36.431Z,73.63
2022-11-08T20:19:08.052Z,54.90
2022-11-08T20:21:35.817Z,65.20
2022-11-08T20:24:06.101Z,50.10
2022-11-08T20:26:35.073Z,45.63
2022-11-08T20:29:02.592Z,41.70
2022-11-08T20:31:30.065Z,38.20
2022-11-08T20:33:57.354Z,30.17
2022-11-08T20:36:26.100Z,28.70
2022-11-08T20:38:59.907Z,25.97
2022-11-08T20:41:30.450Z,19.27
2022-11-08T20:43:57.692Z,20.07
2022-11-08T20:46:26.164Z,29.77
2022-11-08T20:49:00.196Z,22.47
2022-11-08T20:51:29.043Z,22.03
2022-11-08T20:53:57.585Z,20.33
2022-11-08T20:56:25.921Z,20.90
2022-11-08T20:58:53.975Z,20.43
2022-11-08T21:01:28.740Z,20.87
2022-11-08T21:03:56.655Z,20.77
2022-11-08T21:06:26.053Z,23.23
2022-11-08T21:09:09.909Z,23.13
2022-11-08T21:11:41.649Z,24.10
2022-11-08T21:14:09.070Z,26.47
2022-11-08T21:17:06.650Z,28.10
2022-11-08T21:19:26.292Z,26.53
2022-11-08T21:22:13.560Z,90.97
2022-11-08T21:24:41.526Z,55.43
2022-11-08T21:27:09.283Z,71.37
2022-11-08T21:29:38.527Z,67.90
2022-11-08T21:32:06.148Z,70.27
2022-11-08T21:34:33.368Z,95.67
2022-11-08T21:37:00.794Z,96.83
2022-11-08T21:39:28.273Z,89.67
2022-11-08T21:41:55.511Z,70.90
2022-11-08T21:44:23.143Z,66.80
2022-11-08T21:46:50.532Z,60.43
2022-11-08T21:49:17.797Z,61.87
2022-11-08T21:51:45.061Z,61.97
2022-11-08T21:54:12.355Z,77.60
2022-11-08T21:56:39.880Z,82.13
2022-11-08T21:59:07.122Z,59.37
2022-11-08T22:01:34.392Z,56.33
2022-11-08T22:04:01.936Z,65.53
2022-11-08T22:06:29.498Z,81.30
2022-11-08T22:08:56.988Z,72.53
2022-11-08T22:11:24.469Z,68.90
2022-11-08T22:13:51.739Z,72.03
2022-11-08T22:16:19.195Z,54.23
2022-11-08T22:21:38.759Z,80.23
2022-11-08T22:24:06.732Z,67.00
2022-11-08T22:26:34.330Z,74.73
2022-11-08T22:29:03.636Z,79.07
2022-11-08T22:31:31.396Z,65.80
2022-11-08T22:33:58.944Z,54.77
2022-11-08T22:36:26.438Z,48.30
2022-11-08T22:38:53.734Z,43.37
2022-11-08T22:41:22.718Z,43.77
2022-11-08T22:43:50.384Z,39.47
2022-11-08T22:46:17.874Z,30.57
2022-11-08T22:48:45.310Z,24.30
2022-11-08T22:51:13.547Z,21.83
2022-11-08T22:53:42.211Z,24.73
2022-11-08T22:56:11.703Z,22.13
2022-11-08T22:58:39.975Z,22.67
2022-11-08T23:01:08.459Z,27.13
2022-11-08T23:03:35.829Z,25.13
2022-11-08T23:06:03.337Z,29.33
2022-11-08T23:08:31.238Z,29.43
2022-11-08T23:11:20.605Z,27.60
2022-11-08T23:14:06.714Z,26.77
2022-11-08T23:16:36.318Z,30.70
2022-11-08T23:19:29.579Z,29.83
2022-11-08T23:22:15.564Z,23.50
2022-11-08T23:24:43.325Z,25.33
2022-11-08T23:27:30.720Z,24.80
2022-11-08T23:30:17.139Z,25.93
2022-11-08T23:32:47.316Z,35.17
2022-11-08T23:35:15.476Z,34.07
2022-11-08T23:37:43.278Z,28.70
2022-11-08T23:40:31.115Z,27.73
2022-11-08T23:43:24.608Z,38.63
2022-11-08T23:45:52.238Z,34.23
2022-11-08T23:48:19.891Z,34.57
2022-11-08T23:50:51.872Z,34.57
2022-11-08T23:53:21.762Z,31.37
2022-11-08T23:55:49.350Z,42.60
2022-11-08T23:58:17.288Z,51.20
